createdAt,value
2018-02-14T00:02:35.135Z,18.20
2018-02-14T00:07:36.111Z,18.30
2018-02-14T00:12:37.103Z,16.43
2018-02-14T00:17:38.109Z,16.77
2018-02-14T00:22:39.098Z,19.37
2018-02-14T00:27:40.086Z,17.53
2018-02-14T00:32:41.082Z,16.60
2018-02-14T00:37:42.804Z,23.40
2018-02-14T00:42:43.790Z,17.00
2018-02-14T00:47:44.811Z,18.00
2018-02-14T00:52:45.842Z,16.30
2018-02-14T00:57:46.831Z,16.30
2018-02-14T01:02:47.826Z,13.97
2018-02-14T01:07:48.823Z,14.23
2018-02-14T01:12:49.820Z,14.97
2018-02-14T01:17:51.568Z,17.13
2018-02-14T01:22:53.301Z,17.33
2018-02-14T01:27:54.339Z,15.63
2018-02-14T01:32:56.072Z,17.90
2018-02-14T01:37:57.046Z,16.50
2018-02-14T01:42:58.068Z,18.00
2018-02-14T01:47:59.059Z,14.87
2018-02-14T01:53:00.067Z,22.53
2018-02-14T01:58:01.815Z,17.87
2018-02-14T02:03:02.794Z,21.77
2018-02-14T02:08:03.789Z,19.27
2018-02-14T02:13:04.787Z,17.27
2018-02-14T02:18:05.802Z,21.17
2018-02-14T02:23:06.811Z,19.37
2018-02-14T02:28:07.806Z,20.83
2018-02-14T02:33:08.818Z,19.80
2018-02-14T02:38:09.830Z,20.10
2018-02-14T02:43:11.591Z,20.93
2018-02-14T02:48:12.627Z,22.47
2018-02-14T02:53:13.631Z,17.40
2018-02-14T02:58:14.636Z,21.50
2018-02-14T03:03:15.656Z,23.23
2018-02-14T03:08:16.631Z,27.33
2018-02-14T03:13:17.647Z,17.60
2018-02-14T03:18:18.651Z,22.97
2018-02-14T03:23:19.646Z,20.80
2018-02-14T03:28:20.623Z,19.37
2018-02-14T03:33:21.650Z,24.37
2018-02-14T03:38:30.392Z,23.10
2018-02-14T03:43:31.436Z,19.60
2018-02-14T03:48:32.450Z,18.13
2018-02-14T03:53:33.439Z,21.90
2018-02-14T03:58:34.442Z,21.17
2018-02-14T04:03:35.419Z,16.20
2018-02-14T04:08:36.419Z,19.47
2018-02-14T04:13:45.139Z,24.47
2018-02-14T04:18:46.143Z,19.33
2018-02-14T04:23:47.143Z,21.23
2018-02-14T04:28:48.886Z,21.37
2018-02-14T04:33:49.882Z,16.67
2018-02-14T04:38:50.885Z,17.30
2018-02-14T04:43:51.904Z,21.07
2018-02-14T04:48:53.662Z,20.10
2018-02-14T04:53:54.678Z,20.80
2018-02-14T04:58:56.419Z,19.43
2018-02-14T05:03:57.425Z,27.37
2018-02-14T05:08:58.438Z,25.70
2018-02-14T05:13:59.455Z,36.63
2018-02-14T05:19:00.447Z,30.10
2018-02-14T05:24:01.456Z,30.23
2018-02-14T05:29:02.488Z,22.43
2018-02-14T05:34:04.224Z,67.50
2018-02-14T05:39:05.219Z,106.00
2018-02-14T05:44:06.223Z,47.53
2018-02-14T05:49:07.262Z,26.27
2018-02-14T05:54:08.275Z,20.90
2018-02-14T05:59:10.005Z,20.90
2018-02-14T06:09:41.283Z,27.03
2018-02-14T06:14:42.299Z,20.90
2018-02-14T06:19:43.279Z,20.20
2018-02-14T06:24:44.266Z,21.37
2018-02-14T06:29:45.258Z,20.53
2018-02-14T06:34:46.271Z,29.83
2018-02-14T06:39:48.035Z,26.07
2018-02-14T06:44:49.025Z,19.20
2018-02-14T06:49:50.059Z,24.10
2018-02-14T06:54:51.043Z,22.87
2018-02-14T06:59:52.031Z,22.73
2018-02-14T07:04:53.007Z,26.27
2018-02-14T07:09:54.008Z,27.27
2018-02-14T07:14:55.015Z,24.20
2018-02-14T07:19:56.007Z,20.03
2018-02-14T07:24:57.006Z,20.17
2018-02-14T07:29:58.040Z,22.67
2018-02-14T07:34:59.060Z,23.13
2018-02-14T07:40:00.067Z,19.53
2018-02-14T07:45:01.800Z,19.67
2018-02-14T07:50:02.808Z,19.97
2018-02-14T07:55:10.683Z,19.03
2018-02-14T08:00:12.418Z,20.33
2018-02-14T08:05:13.410Z,19.50
2018-02-14T08:10:14.407Z,22.10
2018-02-14T08:15:15.446Z,19.60
2018-02-14T08:20:16.449Z,19.27
2018-02-14T08:25:17.451Z,21.53
2018-02-14T08:30:18.514Z,19.83
2018-02-14T08:35:19.531Z,21.13
2018-02-14T08:40:20.519Z,21.73
2018-02-14T08:45:21.507Z,25.67
2018-02-14T08:50:22.515Z,21.70
2018-02-14T08:55:24.236Z,23.07
2018-02-14T09:00:25.242Z,21.30
2018-02-14T09:05:26.431Z,21.53
2018-02-14T09:10:27.460Z,19.77
2018-02-14T09:15:28.454Z,18.50
2018-02-14T09:20:30.217Z,21.33
2018-02-14T09:25:31.198Z,21.13
2018-02-14T09:30:32.209Z,19.20
2018-02-14T09:35:33.214Z,18.53
2018-02-14T09:40:34.214Z,19.43
2018-02-14T09:45:35.212Z,19.00
2018-02-14T09:50:36.212Z,19.50
2018-02-14T09:55:37.198Z,20.73
2018-02-14T10:00:38.239Z,16.67
2018-02-14T10:05:39.199Z,21.40
2018-02-14T10:10:40.182Z,17.07
2018-02-14T10:15:41.919Z,17.57
2018-02-14T10:20:42.940Z,17.87
2018-02-14T10:25:43.937Z,17.23
2018-02-14T10:30:45.691Z,20.33
2018-02-14T10:35:46.695Z,21.40
2018-02-14T10:40:47.697Z,17.50
2018-02-14T10:45:48.690Z,20.07
2018-02-14T10:50:50.427Z,20.60
2018-02-14T10:55:52.283Z,20.10
2018-02-14T11:01:00.161Z,21.80
2018-02-14T11:06:07.311Z,28.23
2018-02-14T11:11:08.359Z,17.47
2018-02-14T11:16:10.103Z,20.53
2018-02-14T11:21:11.122Z,16.23
2018-02-14T11:26:12.872Z,12.53
2018-02-14T11:31:13.897Z,10.97
2018-02-14T11:36:14.914Z,9.30
2018-02-14T11:41:15.912Z,11.30
2018-02-14T11:46:16.907Z,11.63
2018-02-14T11:51:17.916Z,8.40
2018-02-14T11:56:18.915Z,8.37
2018-02-14T12:01:20.655Z,9.17
2018-02-14T12:06:21.630Z,8.03
2018-02-14T12:11:22.598Z,7.03
2018-02-14T12:16:24.335Z,7.57
2018-02-14T12:21:25.331Z,7.50
2018-02-14T12:26:26.338Z,8.83
2018-02-14T12:31:28.092Z,12.97
2018-02-14T12:36:29.096Z,9.60
2018-02-14T12:41:30.099Z,9.70
2018-02-14T12:46:31.095Z,11.80
2018-02-14T12:51:32.836Z,9.37
2018-02-14T12:56:33.832Z,10.33
2018-02-14T13:01:34.833Z,8.90
2018-02-14T13:06:35.865Z,12.30
2018-02-14T13:11:37.588Z,10.30
2018-02-14T13:16:38.588Z,9.00
2018-02-14T13:21:46.545Z,8.63
2018-02-14T13:26:47.554Z,13.00
2018-02-14T13:31:49.316Z,11.40
2018-02-14T13:36:50.299Z,9.47
2018-02-14T13:41:51.299Z,12.13
2018-02-14T13:46:52.309Z,11.20
2018-02-14T13:51:54.046Z,13.93
2018-02-14T13:56:55.051Z,10.17
2018-02-14T14:01:56.048Z,13.30
2018-02-14T14:06:57.063Z,9.63
2018-02-14T14:11:58.807Z,9.37
2018-02-14T14:16:59.823Z,12.40
2018-02-14T14:22:00.822Z,8.97
2018-02-14T14:27:02.579Z,13.40
2018-02-14T14:32:03.576Z,10.97
2018-02-14T14:37:04.580Z,11.43
2018-02-14T14:42:06.409Z,9.63
2018-02-14T14:47:07.391Z,12.43
2018-02-14T14:52:08.400Z,11.00
2018-02-14T14:57:09.430Z,12.00
2018-02-14T15:02:10.423Z,9.90
2018-02-14T15:07:12.171Z,11.40
2018-02-14T15:12:13.160Z,10.43
2018-02-14T15:17:14.169Z,10.53
2018-02-14T15:22:15.172Z,13.30
2018-02-14T15:27:16.928Z,14.00
2018-02-14T15:32:17.960Z,16.83
2018-02-14T15:37:19.703Z,12.53
2018-02-14T15:42:20.731Z,12.33
2018-02-14T15:47:21.758Z,17.17
2018-02-14T15:52:22.767Z,14.13
2018-02-14T15:57:23.791Z,13.27
2018-02-14T16:02:24.786Z,18.93
2018-02-14T16:07:25.777Z,16.93
2018-02-14T16:12:26.846Z,16.77
2018-02-14T16:17:28.583Z,17.50
2018-02-14T16:22:29.586Z,17.90
2018-02-14T16:27:30.610Z,16.93
2018-02-14T16:32:32.355Z,14.80
2018-02-14T16:37:33.354Z,22.17
2018-02-14T16:42:34.359Z,30.37
2018-02-14T16:47:36.108Z,16.90
2018-02-14T16:52:37.143Z,22.10
2018-02-14T16:57:45.708Z,24.53
2018-02-14T17:02:47.512Z,21.37
2018-02-14T17:07:48.514Z,22.10
2018-02-14T17:12:49.515Z,21.60
2018-02-14T17:17:50.519Z,25.00
2018-02-14T17:22:51.516Z,30.83
2018-02-14T18:52:23.604Z,42.20
2018-02-14T18:57:24.584Z,30.57
2018-02-14T19:02:25.562Z,33.13
2018-02-14T19:07:26.554Z,45.80
2018-02-14T19:12:27.552Z,49.73
2018-02-14T19:17:28.530Z,44.13
2018-02-14T19:22:29.518Z,54.73
2018-02-14T19:27:30.508Z,42.70
2018-02-14T19:32:31.503Z,41.90
2018-02-14T19:37:33.236Z,38.27
2018-02-14T19:42:34.253Z,46.63
2018-02-14T19:47:35.244Z,47.17
2018-02-14T19:52:36.304Z,49.30
2018-02-14T19:57:37.328Z,50.00
2018-02-14T20:02:39.056Z,50.23
2018-02-14T20:07:40.055Z,70.83
2018-02-14T20:12:41.081Z,41.97
2018-02-14T20:17:42.937Z,40.50
2018-02-14T20:22:44.102Z,49.40
2018-02-14T20:27:45.175Z,38.77
2018-02-14T20:32:46.971Z,34.20
2018-02-14T20:37:48.846Z,31.37
2018-02-14T20:42:49.858Z,32.27
2018-02-14T20:47:51.589Z,30.13
2018-02-14T20:52:52.612Z,30.87
2018-02-14T20:57:53.645Z,38.93
2018-02-14T21:02:55.357Z,36.00
2018-02-14T21:07:56.355Z,28.53
2018-02-14T21:12:57.380Z,29.73
2018-02-14T21:17:58.378Z,27.60
2018-02-14T21:23:00.119Z,27.07
2018-02-14T21:28:01.148Z,29.57
2018-02-14T21:33:02.895Z,30.50
2018-02-14T21:38:03.917Z,25.77
2018-02-14T21:43:04.923Z,26.97
2018-02-14T21:48:06.712Z,36.00
2018-02-14T21:53:07.714Z,32.10
2018-02-14T21:58:09.450Z,30.93
2018-02-14T22:03:10.462Z,25.60
2018-02-14T22:08:11.460Z,30.00
2018-02-14T22:13:12.494Z,32.97
2018-02-14T22:18:13.495Z,27.00
2018-02-14T22:23:14.475Z,31.37
2018-02-14T22:28:15.471Z,31.43
2018-02-14T22:33:16.462Z,30.00
2018-02-14T22:38:17.471Z,30.07
2018-02-14T22:43:19.212Z,31.33
2018-02-14T22:48:20.223Z,34.43
2018-02-14T22:53:21.207Z,32.10
2018-02-14T22:58:22.189Z,33.70
2018-02-14T23:03:23.203Z,31.73
2018-02-14T23:08:24.977Z,29.93
2018-02-14T23:13:26.048Z,31.60
2018-02-14T23:18:27.831Z,32.63
2018-02-14T23:23:28.820Z,29.30
2018-02-14T23:28:29.824Z,29.37
2018-02-14T23:33:30.839Z,29.73
2018-02-14T23:38:31.908Z,24.93
2018-02-14T23:43:32.918Z,33.37
2018-02-14T23:48:33.951Z,32.57
2018-02-14T23:53:34.960Z,38.33
2018-02-14T23:58:36.712Z,38.43
